createdAt,value
2022-12-28T00:03:49.491Z,86.26
2022-12-28T00:08:55.828Z,86.92
2022-12-28T00:13:59.946Z,86.91
2022-12-28T00:19:04.798Z,86.98
2022-12-28T00:24:07.406Z,87.20
2022-12-28T00:29:09.332Z,87.00
2022-12-28T00:34:11.243Z,86.73
2022-12-28T00:39:12.903Z,86.77
2022-12-28T00:44:14.650Z,86.73
2022-12-28T00:49:16.444Z,86.32
2022-12-28T00:54:18.074Z,86.40
2022-12-28T00:59:19.921Z,86.45
2022-12-28T01:04:21.657Z,86.30
2022-12-28T01:09:23.344Z,86.53
2022-12-28T01:14:25.166Z,86.33
2022-12-28T01:19:27.703Z,86.36
2022-12-28T01:24:29.514Z,86.40
2022-12-28T01:29:35.141Z,85.80
2022-12-28T01:34:36.896Z,85.80
2022-12-28T01:39:38.655Z,85.71
2022-12-28T01:44:44.130Z,85.91
2022-12-28T01:50:03.362Z,86.09
2022-12-28T01:55:09.859Z,86.25
2022-12-28T02:00:14.547Z,86.38
2022-12-28T02:05:20.303Z,86.29
2022-12-28T02:10:40.576Z,86.36
2022-12-28T02:15:45.039Z,86.28
2022-12-28T02:21:09.519Z,86.67
2022-12-28T02:26:20.260Z,86.83
2022-12-28T02:31:33.859Z,86.41
2022-12-28T02:36:41.658Z,86.12
2022-12-28T02:41:47.081Z,86.09
2022-12-28T02:47:09.350Z,86.05
2022-12-28T02:52:53.482Z,85.96
2022-12-28T02:58:26.590Z,86.36
2022-12-28T03:03:40.570Z,86.34
2022-12-28T03:08:54.212Z,86.48
2022-12-28T03:14:03.076Z,87.04
2022-12-28T03:19:27.052Z,86.99
2022-12-28T03:24:52.895Z,86.48
2022-12-28T03:30:25.178Z,86.68
2022-12-28T03:35:38.925Z,86.69
2022-12-28T03:40:49.446Z,87.13
2022-12-28T03:45:56.962Z,87.29
2022-12-28T03:50:59.860Z,87.48
2022-12-28T03:56:10.560Z,87.65
2022-12-28T04:01:13.559Z,87.63
2022-12-28T04:06:18.287Z,87.15
2022-12-28T04:11:19.984Z,87.25
2022-12-28T04:16:27.476Z,86.76
2022-12-28T04:21:29.277Z,87.05
2022-12-28T04:26:31.505Z,87.17
2022-12-28T04:31:33.450Z,86.98
2022-12-28T04:36:44.821Z,86.79
2022-12-28T04:41:49.562Z,87.05
2022-12-28T04:46:51.442Z,87.08
2022-12-28T04:51:53.151Z,86.87
2022-12-28T04:56:54.825Z,86.99
2022-12-28T05:01:56.605Z,86.87
2022-12-28T05:06:58.371Z,87.03
2022-12-28T05:12:00.094Z,87.23
2022-12-28T05:17:01.872Z,87.27
2022-12-28T05:22:03.915Z,87.67
2022-12-28T05:27:05.660Z,88.88
2022-12-28T05:32:07.479Z,89.33
2022-12-28T05:37:09.172Z,89.19
2022-12-28T05:42:10.945Z,89.63
2022-12-28T05:47:13.784Z,89.69
2022-12-28T05:52:15.486Z,89.33
2022-12-28T05:57:17.114Z,89.51
2022-12-28T06:02:24.415Z,89.46
2022-12-28T06:07:26.521Z,89.39
2022-12-28T06:12:28.174Z,89.34
2022-12-28T06:17:29.864Z,89.90
2022-12-28T06:22:31.616Z,89.98
2022-12-28T06:27:33.288Z,90.29
2022-12-28T06:32:34.934Z,90.68
2022-12-28T06:37:36.604Z,90.62
2022-12-28T06:42:38.230Z,90.91
2022-12-28T06:47:40.100Z,91.06
2022-12-28T06:52:42.294Z,91.13
2022-12-28T06:57:44.053Z,91.27
2022-12-28T07:02:45.896Z,91.04
2022-12-28T07:07:47.624Z,90.96
2022-12-28T07:12:49.256Z,91.19
2022-12-28T07:17:50.908Z,91.33
2022-12-28T07:22:54.621Z,91.17
2022-12-28T07:27:56.397Z,91.28
2022-12-28T07:32:58.076Z,91.55
2022-12-28T07:37:59.779Z,91.19
2022-12-28T07:43:01.449Z,91.32
2022-12-28T07:48:03.267Z,91.28
2022-12-28T07:53:05.080Z,91.35
2022-12-28T07:58:06.748Z,91.29
2022-12-28T08:03:08.489Z,91.34
2022-12-28T08:08:10.341Z,91.65
2022-12-28T08:13:12.016Z,91.84
2022-12-28T08:18:13.751Z,92.20
2022-12-28T08:23:15.595Z,92.14
2022-12-28T08:28:17.293Z,91.99
2022-12-28T08:33:19.015Z,91.95
2022-12-28T08:38:20.673Z,92.27
2022-12-28T08:43:22.434Z,92.62
2022-12-28T08:48:24.447Z,94.40
2022-12-28T08:53:26.271Z,93.91
2022-12-28T08:58:28.024Z,93.25
2022-12-28T09:03:30.112Z,92.95
2022-12-28T09:08:32.157Z,92.31
2022-12-28T09:13:34.852Z,92.09
2022-12-28T09:18:37.493Z,91.15
2022-12-28T09:23:40.266Z,90.43
2022-12-28T09:28:55.767Z,89.94
2022-12-28T09:39:24.805Z,88.30
2022-12-28T09:44:32.084Z,87.46
2022-12-28T09:49:58.795Z,86.99
2022-12-28T09:55:13.575Z,86.08
2022-12-28T10:00:43.093Z,85.36
2022-12-28T10:05:45.297Z,84.77
2022-12-28T10:10:49.211Z,84.12
2022-12-28T10:15:52.896Z,83.00
2022-12-28T10:20:55.937Z,82.35
2022-12-28T10:25:59.539Z,81.48
2022-12-28T10:31:12.190Z,80.92
2022-12-28T10:36:16.171Z,80.54
2022-12-28T10:41:20.387Z,80.40
2022-12-28T10:46:24.142Z,80.39
2022-12-28T10:51:29.559Z,79.90
2022-12-28T10:56:48.476Z,79.16
2022-12-28T11:01:50.538Z,78.96
2022-12-28T11:06:57.752Z,78.48
2022-12-28T11:12:23.947Z,77.86
2022-12-28T11:17:30.758Z,77.17
2022-12-28T11:22:33.790Z,76.42
2022-12-28T11:27:36.114Z,75.36
2022-12-28T11:32:43.489Z,75.18
2022-12-28T11:37:50.100Z,75.08
2022-12-28T11:42:56.210Z,74.66
2022-12-28T11:48:36.489Z,74.69
2022-12-28T11:53:45.058Z,74.88
2022-12-28T11:59:01.173Z,74.22
2022-12-28T12:04:05.685Z,74.29
2022-12-28T12:09:25.896Z,74.12
2022-12-28T12:14:42.952Z,73.98
2022-12-28T12:19:50.548Z,73.48
2022-12-28T12:24:58.791Z,73.01
2022-12-28T12:30:04.582Z,72.81
2022-12-28T12:35:07.898Z,72.70
2022-12-28T12:40:09.650Z,72.28
2022-12-28T12:45:40.918Z,72.13
2022-12-28T12:50:42.552Z,72.11
2022-12-28T12:56:07.603Z,71.77
2022-12-28T13:01:18.597Z,71.14
2022-12-28T13:06:24.364Z,70.33
2022-12-28T13:11:26.726Z,70.43
2022-12-28T13:16:31.123Z,70.54
2022-12-28T13:21:44.917Z,70.24
2022-12-28T13:26:46.603Z,70.13
2022-12-28T13:31:51.426Z,70.42
2022-12-28T13:36:58.227Z,70.33
2022-12-28T13:42:04.431Z,70.61
2022-12-28T13:47:18.082Z,70.61
2022-12-28T13:52:28.640Z,70.42
2022-12-28T13:57:55.774Z,70.09
2022-12-28T14:02:58.053Z,70.08
2022-12-28T14:08:00.047Z,70.08
2022-12-28T14:13:03.936Z,70.51
2022-12-28T14:18:06.286Z,70.44
2022-12-28T14:23:23.429Z,70.76
2022-12-28T14:28:42.472Z,70.93
2022-12-28T14:34:24.302Z,71.30
2022-12-28T14:39:35.734Z,71.58
2022-12-28T14:44:40.464Z,71.83
2022-12-28T14:49:44.101Z,71.86
2022-12-28T14:54:49.741Z,72.19
2022-12-28T15:00:01.121Z,72.16
2022-12-28T15:05:03.460Z,72.58
2022-12-28T15:10:05.728Z,72.56
2022-12-28T15:15:10.153Z,72.49
2022-12-28T15:20:11.959Z,72.57
2022-12-28T15:25:13.704Z,72.57
2022-12-28T15:30:21.640Z,72.80
2022-12-28T15:35:26.242Z,72.92
2022-12-28T15:40:28.803Z,72.90
2022-12-28T15:45:31.723Z,72.98
2022-12-28T15:50:33.329Z,73.19
2022-12-28T15:55:35.042Z,73.46
2022-12-28T16:00:36.799Z,73.84
2022-12-28T16:05:38.522Z,73.67
2022-12-28T16:10:40.238Z,73.74
2022-12-28T16:15:41.888Z,74.09
2022-12-28T16:20:43.640Z,74.36
2022-12-28T16:25:51.366Z,74.63
2022-12-28T16:30:53.479Z,74.99
2022-12-28T16:35:59.528Z,74.63
2022-12-28T16:41:01.791Z,74.25
2022-12-28T16:46:08.494Z,73.62
2022-12-28T16:51:11.942Z,73.23
2022-12-28T16:56:13.778Z,73.03
2022-12-28T17:01:15.698Z,72.76
2022-12-28T17:06:18.080Z,72.56
2022-12-28T17:11:19.812Z,72.48
2022-12-28T17:16:21.593Z,72.25
2022-12-28T17:21:23.415Z,71.41
2022-12-28T17:26:25.869Z,71.87
2022-12-28T17:31:28.086Z,71.76
2022-12-28T17:36:29.804Z,71.44
2022-12-28T17:41:31.629Z,71.24
2022-12-28T17:46:37.737Z,71.39
2022-12-28T17:51:43.429Z,71.60
2022-12-28T17:56:45.111Z,70.99
2022-12-28T18:01:46.839Z,71.36
2022-12-28T18:06:48.646Z,71.14
2022-12-28T18:11:50.367Z,71.27
2022-12-28T18:16:52.246Z,70.91
2022-12-28T18:21:54.062Z,70.63
2022-12-28T18:26:55.825Z,70.17
2022-12-28T18:31:57.666Z,69.97
2022-12-28T18:36:59.322Z,69.82
2022-12-28T18:42:02.620Z,69.24
2022-12-28T18:47:04.509Z,68.69
2022-12-28T18:52:06.337Z,68.41
2022-12-28T18:57:08.313Z,67.57
2022-12-28T19:02:17.516Z,67.03
2022-12-28T19:07:21.220Z,66.78
2022-12-28T19:12:22.877Z,66.62
2022-12-28T19:17:24.624Z,66.77
2022-12-28T19:22:26.524Z,67.05
2022-12-28T19:27:28.224Z,66.92
2022-12-28T19:32:30.562Z,66.77
2022-12-28T19:37:32.199Z,67.01
2022-12-28T19:42:33.960Z,66.62
2022-12-28T19:47:35.718Z,66.56
2022-12-28T19:52:37.381Z,66.72
2022-12-28T19:57:39.676Z,66.86
2022-12-28T20:02:41.782Z,66.61
2022-12-28T20:07:43.655Z,66.58
2022-12-28T20:12:45.367Z,66.75
2022-12-28T20:17:47.461Z,66.58
2022-12-28T20:22:49.273Z,66.78
2022-12-28T20:27:50.968Z,66.50
2022-12-28T20:32:52.664Z,66.77
2022-12-28T20:37:54.345Z,67.04
2022-12-28T20:43:14.828Z,66.73
2022-12-28T20:48:17.323Z,66.67
2022-12-28T20:53:19.138Z,66.82
2022-12-28T20:58:20.977Z,66.70
2022-12-28T21:03:22.684Z,66.68
2022-12-28T21:08:30.386Z,66.47
2022-12-28T21:13:32.455Z,66.54
2022-12-28T21:18:35.578Z,66.40
2022-12-28T21:23:37.537Z,66.82
2022-12-28T21:28:39.499Z,67.08
2022-12-28T21:33:41.923Z,67.73
2022-12-28T21:38:44.914Z,68.04
2022-12-28T21:43:46.606Z,67.88
2022-12-28T21:48:48.366Z,68.61
2022-12-28T21:53:50.050Z,69.40
2022-12-28T21:58:52.275Z,70.32
2022-12-28T22:04:12.801Z,71.09
2022-12-28T22:09:33.298Z,71.37
2022-12-28T22:14:34.924Z,71.92
2022-12-28T22:19:36.828Z,72.16
2022-12-28T22:24:38.492Z,73.24
2022-12-28T22:29:40.259Z,73.00
2022-12-28T22:34:41.860Z,73.34
2022-12-28T22:39:43.492Z,73.14
2022-12-28T22:44:45.184Z,73.40
2022-12-28T22:49:46.893Z,73.89
2022-12-28T22:54:48.533Z,73.94
2022-12-28T22:59:50.465Z,73.35
2022-12-28T23:04:52.115Z,73.04
2022-12-28T23:09:54.041Z,72.33
2022-12-28T23:15:14.498Z,71.81
2022-12-28T23:20:35.828Z,71.36
2022-12-28T23:25:59.289Z,71.66
2022-12-28T23:31:01.391Z,71.85
2022-12-28T23:36:04.178Z,70.87
2022-12-28T23:41:24.976Z,69.88
2022-12-28T23:46:26.724Z,68.96
2022-12-28T23:51:28.426Z,68.36
2022-12-28T23:56:30.131Z,67.81
